Byam: Past 24 Hour Conditions

 

Cape Dorset Airport

07:00 PM EST 22 February 2018
Disclaimer

This table is a summary of hourly weather conditions for the past 24 hours.
Please note that these observations might not always be representative of weather conditions over their associated marine area.

Date / Time
(EST)
Wind(knots) Conditions Visibility(km) Pressure(kPa) Air tempC) Relative humidity(%) Dew pointC) Wind Chill
22 February 2018
19:00 W 20 Light Snow 5 101.2 -24 79 -27 -39
18:00 W 11 gust 17 Light Snow 4 101.3 -25 81 -27 -37
17:00 W 18 Light Snow 6 101.3 -24 79 -27 -38
16:00 WSW 19 gust 24 Mist 5 101.3 -24 78 -26 -38
15:00 W 19 gust 26 Light Snow 10 101.3 -23 74 -27 -38
14:00 W 14 Sunny 13 101.3 -24 77 -27 -37
13:00 W 14 gust 19 Haze 6 101.3 -25 75 -28 -38
12:00 WNW 19 Ice Crystals 24 101.3 -25 77 -28 -40
11:00 W 16 Mostly Cloudy 24 101.3 -25 79 -27 -39
10:00 W 16 Mostly Cloudy 24 101.3 -26 77 -29 -40
9:00 WNW 18 Mostly Cloudy 24 101.3 -25 69 -29 -40
8:00 WNW 15 Drifting Snow 24 101.3 -27 76 -30 -41
7:00 W 13 gust 19 Drifting Snow 16 101.4 -26 79 -29 -40
6:00 W 14 gust 19 Clear 16 101.4 -25 77 -28 -39
5:00 W 13 gust 18 Clear 16 101.4 -25 72 -29 -38
4:00 W 14 gust 19 Clear 16 101.4 -25 64 -30 -38
3:00 W 18 gust 23 Mist 8 101.4 -25 81 -27 -40
2:00 WSW 15 Clear 16 101.4 -25 70 -29 -39
1:00 WSW 15 gust 20 Clear 16 101.4 -25 71 -29 -39
0:00 W 15 Clear 16 101.4 -25 60 -31 -39
21 February 2018
23:00 W 11 Clear 16 101.5 -26 67 -31 -39
22:00 W 11 Clear 16 101.4 -26 63 -31 -38
21:00 W 7 Clear 16 101.5 -27 70 -31 -37
20:00 W 10 gust 15 Clear 16 101.5 -26 71 -30 -38
19:00 WNW 10 gust 16 Clear 16 101.5 -25 66 -30 -37

Zoom-in to make a selection

Map of Arctic - Eastern Arctic marine weather areas Baker Lake Airport Chesterfield Inlet Airport Coral Harbour Airport Gjoa Haven Airport Kugaaruk Airport Rankin Inlet Airport Shepherd Bay Airport Whale Cove Airport Arctic Bay Brevoort Island Qikiqtarjuaq Airport Cape Dorset Airport Cape Dyer Cape Hooper Clyde River Airport Grise Fiord Airport Hall Beach Airport Igloolik Airport Iqaluit Airport Longstaff Bluff Pangnirtung Airport Pond Inlet Airport Naujaat Resolute Airport Resolution Island Rowley Island Airport Taloyoak Airport Wager Bay Akulivik Airport Ivujivik Airport Puvirnituq Airport Kangiqsujuaq Airport Kangirsuk Airport Quaqtaq Airport Tasiujaq Airport Cape Kakkiviak Cape Kiglapait Nain Airport Saglek Cape Mercy Kimmirut Airport Aupaluk Airport Salluit Airport Kangiqsualujjuaq Airport Cape Liverpool Fort Ross
Legend:
buoy Buoy
land station Land Station

Arctic - Eastern Arctic Area

Another Region

What we are doing

Date modified: